createdAt,value
2023-04-27T00:03:05.975Z,8.74
2023-04-27T00:07:07.692Z,8.73
2023-04-27T00:11:09.094Z,8.59
2023-04-27T00:15:11.144Z,9.09
2023-04-27T00:19:13.584Z,9.08
2023-04-27T00:23:15.460Z,8.73
2023-04-27T00:27:16.876Z,8.47
2023-04-27T00:31:18.576Z,8.71
2023-04-27T00:35:20.154Z,8.86
2023-04-27T00:39:21.662Z,8.81
2023-04-27T00:43:23.082Z,8.62
2023-04-27T00:47:25.057Z,8.65
2023-04-27T00:51:30.092Z,8.69
2023-04-27T00:55:31.471Z,8.35
2023-04-27T00:59:32.823Z,8.72
2023-04-27T01:03:34.332Z,8.45
2023-04-27T01:07:39.802Z,8.64
2023-04-27T01:11:41.245Z,8.48
2023-04-27T01:15:42.654Z,8.56
2023-04-27T01:19:44.939Z,8.25
2023-04-27T01:23:46.352Z,8.34
2023-04-27T01:27:47.809Z,8.27
2023-04-27T01:31:49.230Z,8.07
2023-04-27T01:35:50.679Z,8.31
2023-04-27T01:39:52.259Z,8.37
2023-04-27T01:43:53.728Z,8.31
2023-04-27T01:47:56.473Z,8.10
2023-04-27T01:51:57.880Z,8.36
2023-04-27T01:55:59.675Z,8.05
2023-04-27T02:00:01.116Z,8.05
2023-04-27T02:04:02.705Z,8.03
2023-04-27T02:08:04.529Z,8.29
2023-04-27T02:12:06.090Z,7.94
2023-04-27T02:16:07.726Z,7.91
2023-04-27T02:20:10.790Z,7.95
2023-04-27T02:24:12.164Z,7.98
2023-04-27T02:28:14.135Z,8.11
2023-04-27T02:32:16.030Z,7.93
2023-04-27T02:36:17.550Z,8.08
2023-04-27T02:40:18.964Z,7.64
2023-04-27T02:44:20.369Z,7.49
2023-04-27T02:48:21.797Z,7.74
2023-04-27T02:52:23.253Z,7.73
2023-04-27T02:56:24.678Z,7.66
2023-04-27T03:00:26.936Z,7.57
2023-04-27T03:04:29.043Z,7.47
2023-04-27T03:08:30.465Z,7.07
2023-04-27T03:12:32.765Z,7.05
2023-04-27T03:16:35.054Z,7.10
2023-04-27T03:20:36.477Z,7.28
2023-04-27T03:24:38.256Z,7.39
2023-04-27T03:28:40.376Z,7.53
2023-04-27T03:32:41.793Z,7.20
2023-04-27T03:36:43.491Z,7.58
2023-04-27T03:40:45.008Z,7.72
2023-04-27T03:44:46.363Z,7.40
2023-04-27T03:48:47.747Z,7.44
2023-04-27T03:52:49.265Z,7.53
2023-04-27T03:56:50.822Z,7.56
2023-04-27T04:00:54.543Z,7.21
2023-04-27T04:04:56.224Z,6.99
2023-04-27T04:08:58.198Z,7.31
2023-04-27T04:12:59.650Z,7.22
2023-04-27T04:17:01.433Z,7.51
2023-04-27T04:21:03.270Z,7.60
2023-04-27T04:25:05.406Z,7.65
2023-04-27T04:29:08.340Z,7.74
2023-04-27T04:33:11.007Z,8.73
2023-04-27T04:37:12.931Z,10.07
2023-04-27T04:41:14.335Z,11.47
2023-04-27T04:45:15.766Z,12.67
2023-04-27T04:49:17.677Z,12.86
2023-04-27T04:53:19.079Z,13.36
2023-04-27T04:57:20.515Z,14.09
2023-04-27T05:01:22.012Z,13.59
2023-04-27T05:05:23.505Z,13.47
2023-04-27T05:09:24.916Z,13.19
2023-04-27T05:13:26.841Z,13.67
2023-04-27T05:17:28.260Z,14.38
2023-04-27T05:21:29.827Z,13.16
2023-04-27T05:25:35.150Z,12.39
2023-04-27T05:29:36.518Z,11.36
2023-04-27T05:33:37.909Z,11.17
2023-04-27T05:37:39.285Z,10.92
2023-04-27T05:41:41.028Z,10.22
2023-04-27T05:45:42.458Z,10.51
2023-04-27T05:49:43.996Z,10.54
2023-04-27T05:53:45.424Z,10.97
2023-04-27T05:58:22.171Z,11.73
2023-04-27T06:02:23.671Z,12.34
2023-04-27T06:06:25.142Z,11.98
2023-04-27T06:10:26.611Z,11.90
2023-04-27T06:14:53.620Z,11.22
2023-04-27T06:18:55.124Z,10.93
2023-04-27T06:22:57.975Z,10.81
2023-04-27T06:26:59.350Z,10.85
2023-04-27T06:31:00.857Z,11.31
2023-04-27T06:35:05.299Z,10.93
2023-04-27T06:39:06.696Z,11.47
2023-04-27T06:43:08.154Z,11.07
2023-04-27T06:47:09.715Z,10.76
2023-04-27T06:51:11.130Z,10.97
2023-04-27T06:55:39.568Z,11.47
2023-04-27T06:59:42.316Z,11.76
2023-04-27T07:03:43.821Z,11.45
2023-04-27T07:07:45.391Z,11.38
2023-04-27T07:11:46.777Z,11.60
2023-04-27T07:15:48.251Z,11.45
2023-04-27T07:19:49.924Z,11.73
2023-04-27T07:23:51.455Z,11.53
2023-04-27T07:27:53.247Z,11.86
2023-04-27T07:31:55.784Z,11.63
2023-04-27T07:35:57.469Z,12.00
2023-04-27T07:39:59.623Z,12.42
2023-04-27T07:44:00.985Z,11.92
2023-04-27T07:48:02.856Z,12.11
2023-04-27T07:52:04.773Z,12.56
2023-04-27T07:56:06.604Z,12.48
2023-04-27T08:00:10.576Z,11.72
2023-04-27T08:04:16.006Z,12.26
2023-04-27T08:08:18.069Z,12.12
2023-04-27T08:12:20.002Z,12.37
2023-04-27T08:16:21.453Z,12.71
2023-04-27T08:20:22.949Z,12.25
2023-04-27T08:24:24.422Z,12.32
2023-04-27T08:28:25.850Z,12.70
2023-04-27T08:32:28.256Z,12.70
2023-04-27T08:36:29.734Z,12.75
2023-04-27T08:40:31.155Z,12.60
2023-04-27T08:44:33.072Z,12.47
2023-04-27T08:48:34.405Z,12.50
2023-04-27T08:52:37.342Z,12.16
2023-04-27T08:56:39.356Z,12.66
2023-04-27T09:00:42.528Z,12.36
2023-04-27T09:04:44.121Z,12.87
2023-04-27T09:08:47.714Z,13.38
2023-04-27T09:13:00.195Z,12.35
2023-04-27T09:17:01.708Z,12.70
2023-04-27T09:21:04.211Z,12.08
2023-04-27T09:25:05.951Z,12.34
2023-04-27T09:29:07.965Z,12.49
2023-04-27T09:33:09.430Z,12.69
2023-04-27T09:37:11.025Z,13.42
2023-04-27T09:41:13.196Z,13.23
2023-04-27T09:45:15.126Z,13.02
2023-04-27T09:49:18.815Z,13.58
2023-04-27T09:53:29.178Z,13.72
2023-04-27T09:57:39.003Z,13.67
2023-04-27T10:01:54.700Z,12.71
2023-04-27T10:06:20.729Z,12.97
2023-04-27T10:10:22.138Z,13.53
2023-04-27T10:14:24.530Z,13.47
2023-04-27T10:18:31.197Z,13.27
2023-04-27T10:22:39.351Z,14.08
2023-04-27T10:26:46.756Z,14.31
2023-04-27T10:30:49.265Z,14.33
2023-04-27T10:35:02.052Z,14.22
2023-04-27T10:39:14.016Z,13.91
2023-04-27T10:43:17.787Z,13.49
2023-04-27T10:47:23.630Z,13.86
2023-04-27T10:51:26.268Z,14.03
2023-04-27T10:55:27.786Z,13.61
2023-04-27T10:59:29.229Z,13.35
2023-04-27T11:03:30.783Z,13.95
2023-04-27T11:07:32.296Z,14.04
2023-04-27T11:11:34.248Z,14.02
2023-04-27T11:15:56.474Z,14.19
2023-04-27T11:19:57.905Z,14.21
2023-04-27T11:24:09.903Z,14.12
2023-04-27T11:28:21.590Z,13.87
2023-04-27T11:32:23.712Z,14.08
2023-04-27T11:36:26.631Z,13.39
2023-04-27T11:40:29.138Z,13.70
2023-04-27T11:44:30.515Z,14.11
2023-04-27T11:48:31.979Z,13.97
2023-04-27T11:52:37.943Z,14.19
2023-04-27T11:56:42.997Z,13.57
2023-04-27T12:00:44.541Z,13.92
2023-04-27T12:04:46.614Z,13.64
2023-04-27T12:08:48.419Z,14.18
2023-04-27T12:12:49.928Z,14.90
2023-04-27T12:16:51.803Z,14.51
2023-04-27T12:20:53.265Z,14.23
2023-04-27T12:24:54.977Z,14.80
2023-04-27T12:28:56.719Z,14.35
2023-04-27T12:33:00.308Z,14.99
2023-04-27T12:37:01.757Z,14.88
2023-04-27T12:41:03.230Z,15.30
2023-04-27T12:45:05.379Z,15.10
2023-04-27T12:49:07.836Z,15.48
2023-04-27T12:53:09.318Z,14.93
2023-04-27T12:57:10.756Z,15.06
2023-04-27T13:01:14.875Z,15.48
2023-04-27T13:05:16.689Z,14.72
2023-04-27T13:09:18.177Z,15.20
2023-04-27T13:13:19.617Z,15.20
2023-04-27T13:17:21.171Z,14.76
2023-04-27T13:21:23.145Z,14.08
2023-04-27T13:25:24.576Z,14.61
2023-04-27T13:29:26.123Z,14.62
2023-04-27T13:33:27.559Z,14.97
2023-04-27T13:37:29.023Z,14.77
2023-04-27T13:41:31.211Z,15.18
2023-04-27T13:45:32.668Z,14.72
2023-04-27T13:49:34.083Z,15.14
2023-04-27T13:53:35.514Z,15.13
2023-04-27T13:57:37.477Z,14.41
2023-04-27T14:01:40.066Z,14.49
2023-04-27T14:05:41.614Z,14.63
2023-04-27T14:09:43.005Z,14.33
2023-04-27T14:13:44.409Z,13.85
2023-04-27T14:17:45.900Z,14.23
2023-04-27T14:21:49.529Z,13.95
2023-04-27T14:25:51.076Z,14.91
2023-04-27T14:29:52.486Z,15.26
2023-04-27T14:33:53.852Z,14.19
2023-04-27T14:37:57.104Z,14.81
2023-04-27T14:41:58.597Z,15.30
2023-04-27T14:46:11.908Z,14.35
2023-04-27T14:50:21.380Z,13.87
2023-04-27T14:54:22.749Z,13.03
2023-04-27T14:58:24.324Z,12.91
2023-04-27T15:02:26.159Z,13.22
2023-04-27T15:06:28.632Z,13.28
2023-04-27T15:10:30.045Z,13.13
2023-04-27T15:14:31.854Z,13.73
2023-04-27T15:18:33.337Z,13.52
2023-04-27T15:22:34.701Z,13.77
2023-04-27T15:26:36.128Z,14.26
2023-04-27T15:30:37.637Z,14.11
2023-04-27T15:34:42.521Z,13.70
2023-04-27T15:38:43.928Z,13.36
2023-04-27T15:42:45.326Z,13.43
2023-04-27T15:46:46.931Z,13.48
2023-04-27T15:50:48.307Z,13.85
2023-04-27T15:54:49.724Z,13.19
2023-04-27T15:58:51.145Z,13.78
2023-04-27T16:02:53.138Z,13.52
2023-04-27T16:06:54.818Z,13.35
2023-04-27T16:10:56.202Z,13.33
2023-04-27T16:14:57.878Z,13.41
2023-04-27T16:18:59.364Z,13.93
2023-04-27T16:23:00.860Z,13.59
2023-04-27T16:27:03.474Z,13.59
2023-04-27T16:31:05.053Z,13.51
2023-04-27T16:35:07.738Z,12.88
2023-04-27T16:39:10.932Z,13.10
2023-04-27T16:43:12.621Z,12.85
2023-04-27T16:47:14.544Z,12.63
2023-04-27T16:51:16.044Z,12.66
2023-04-27T16:55:17.557Z,12.64
2023-04-27T16:59:18.994Z,12.81
2023-04-27T17:03:20.877Z,12.75
2023-04-27T17:07:22.384Z,12.54
2023-04-27T17:11:24.291Z,12.42
2023-04-27T17:15:26.567Z,12.12
2023-04-27T17:19:28.451Z,12.58
2023-04-27T17:23:31.900Z,12.68
2023-04-27T17:27:33.345Z,12.37
2023-04-27T17:31:35.950Z,12.56
2023-04-27T17:35:37.481Z,12.20
2023-04-27T17:39:38.939Z,12.32
2023-04-27T17:43:40.407Z,12.04
2023-04-27T17:47:42.314Z,11.99
2023-04-27T17:51:44.919Z,12.28
2023-04-27T17:55:47.613Z,11.89
2023-04-27T17:59:50.312Z,12.48
2023-04-27T18:03:51.971Z,12.27
2023-04-27T18:07:53.459Z,12.40
2023-04-27T18:11:54.977Z,12.24
2023-04-27T18:15:56.410Z,12.27
2023-04-27T18:20:07.442Z,12.10
2023-04-27T18:24:12.306Z,12.28
2023-04-27T18:28:13.757Z,11.87
2023-04-27T18:32:16.024Z,11.51
2023-04-27T18:36:19.552Z,11.77
2023-04-27T18:40:21.852Z,11.66
2023-04-27T18:44:23.484Z,11.30
2023-04-27T18:48:24.883Z,11.51
2023-04-27T18:52:26.683Z,11.18
2023-04-27T18:56:28.198Z,11.43
2023-04-27T19:00:30.782Z,11.62
2023-04-27T19:04:33.334Z,11.59
2023-04-27T19:08:34.969Z,11.79
2023-04-27T19:12:36.480Z,11.77
2023-04-27T19:16:38.055Z,11.66
2023-04-27T19:20:40.556Z,11.42
2023-04-27T19:24:42.222Z,11.07
2023-04-27T19:28:43.737Z,11.24
2023-04-27T19:32:45.194Z,10.78
2023-04-27T19:36:46.878Z,10.95
2023-04-27T19:40:48.661Z,10.83
2023-04-27T19:44:50.389Z,10.62
2023-04-27T19:48:53.146Z,11.02
2023-04-27T19:52:54.624Z,10.85
2023-04-27T19:56:56.168Z,10.77
2023-04-27T20:00:57.628Z,10.95
2023-04-27T20:04:59.503Z,10.73
2023-04-27T20:09:01.142Z,10.81
2023-04-27T20:13:02.606Z,10.93
2023-04-27T20:17:05.294Z,10.71
2023-04-27T20:21:06.744Z,10.81
2023-04-27T20:25:08.732Z,10.78
2023-04-27T20:29:10.444Z,10.46
2023-04-27T20:33:14.778Z,10.13
2023-04-27T20:37:16.978Z,10.46
2023-04-27T20:41:18.568Z,10.19
2023-04-27T20:45:20.099Z,9.98
2023-04-27T20:49:31.984Z,9.80
2023-04-27T20:53:36.217Z,9.85
2023-04-27T20:57:37.749Z,9.44
2023-04-27T21:01:39.329Z,9.75
2023-04-27T21:05:44.041Z,9.52
2023-04-27T21:09:45.502Z,9.48
2023-04-27T21:13:47.032Z,9.72
2023-04-27T21:17:48.477Z,9.52
2023-04-27T21:21:49.926Z,9.39
2023-04-27T21:25:51.418Z,9.32
2023-04-27T21:29:53.222Z,9.12
2023-04-27T21:33:54.742Z,8.90
2023-04-27T21:37:56.746Z,8.78
2023-04-27T21:41:58.276Z,8.68
2023-04-27T21:46:00.053Z,8.49
2023-04-27T21:50:01.564Z,8.61
2023-04-27T21:54:03.061Z,8.61
2023-04-27T21:58:04.526Z,8.58
2023-04-27T22:02:06.583Z,8.65
2023-04-27T22:06:09.016Z,8.52
2023-04-27T22:10:11.035Z,8.57
2023-04-27T22:14:12.562Z,8.41
2023-04-27T22:18:15.201Z,7.60
2023-04-27T22:22:16.660Z,6.70
2023-04-27T22:26:18.212Z,6.32
2023-04-27T22:30:19.654Z,6.90
2023-04-27T22:34:21.428Z,7.32
2023-04-27T22:38:22.945Z,7.31
2023-04-27T22:42:24.474Z,6.78
2023-04-27T22:46:25.950Z,6.56
2023-04-27T22:50:28.880Z,6.98
2023-04-27T22:54:30.407Z,6.37
2023-04-27T22:58:31.850Z,6.67
2023-04-27T23:02:33.381Z,6.98
2023-04-27T23:06:35.734Z,7.01
2023-04-27T23:10:38.794Z,6.93
2023-04-27T23:14:41.769Z,6.91
2023-04-27T23:18:43.176Z,6.89
2023-04-27T23:22:44.712Z,6.71
2023-04-27T23:26:46.281Z,6.66
2023-04-27T23:30:52.940Z,6.85
2023-04-27T23:34:54.969Z,6.92
2023-04-27T23:38:56.470Z,7.07
2023-04-27T23:42:58.160Z,7.12
2023-04-27T23:46:59.603Z,6.87
2023-04-27T23:51:02.143Z,6.40
2023-04-27T23:55:03.850Z,5.72
2023-04-27T23:59:05.275Z,5.82
